createdAt,value
2023-04-26T00:00:34.014Z,1.06
2023-04-26T00:01:34.108Z,1.51
2023-04-26T00:02:34.279Z,1.36
2023-04-26T00:03:34.372Z,1.57
2023-04-26T00:04:34.421Z,1.23
2023-04-26T00:05:35.330Z,1.16
2023-04-26T00:06:34.304Z,1.13
2023-04-26T00:07:34.326Z,1.45
2023-04-26T00:08:34.307Z,1.26
2023-04-26T00:09:34.325Z,1.16
2023-04-26T00:10:34.281Z,1.17
2023-04-26T00:11:34.345Z,1.28
2023-04-26T00:12:34.404Z,1.18
2023-04-26T00:13:34.351Z,1.51
2023-04-26T00:14:34.410Z,1.14
2023-04-26T00:15:34.515Z,1.66
2023-04-26T00:16:34.636Z,2.03
2023-04-26T00:17:34.692Z,1.08
2023-04-26T00:18:34.695Z,1.68
2023-04-26T00:19:34.803Z,1.79
2023-04-26T00:20:34.797Z,1.18
2023-04-26T00:21:34.890Z,1.18
2023-04-26T00:22:34.958Z,1.43
2023-04-26T00:23:34.979Z,1.30
2023-04-26T00:24:35.023Z,1.54
2023-04-26T00:25:35.035Z,1.09
2023-04-26T00:26:35.111Z,1.10
2023-04-26T00:27:35.224Z,1.19
2023-04-26T00:28:35.160Z,1.23
2023-04-26T00:29:35.277Z,1.56
2023-04-26T00:30:35.289Z,1.20
2023-04-26T00:31:35.471Z,1.20
2023-04-26T00:32:35.590Z,1.47
2023-04-26T00:33:35.756Z,1.51
2023-04-26T00:34:35.508Z,1.51
2023-04-26T00:35:35.523Z,1.58
2023-04-26T00:36:35.581Z,1.51
2023-04-26T00:37:35.591Z,1.13
2023-04-26T00:38:35.949Z,1.00
2023-04-26T00:39:35.652Z,1.27
2023-04-26T00:40:35.726Z,1.47
2023-04-26T00:41:35.779Z,1.37
2023-04-26T00:42:35.863Z,1.45
2023-04-26T00:43:35.884Z,1.22
2023-04-26T00:44:35.843Z,1.26
2023-04-26T00:45:35.852Z,1.41
2023-04-26T00:46:35.928Z,1.49
2023-04-26T00:47:35.999Z,1.48
2023-04-26T00:48:36.029Z,1.47
2023-04-26T00:49:36.105Z,1.35
2023-04-26T00:50:36.132Z,1.63
2023-04-26T00:51:36.206Z,1.92
2023-04-26T00:52:36.181Z,1.72
2023-04-26T00:53:36.254Z,1.34
2023-04-26T00:54:36.285Z,1.56
2023-04-26T00:55:36.364Z,1.46
2023-04-26T00:56:36.390Z,1.86
2023-04-26T00:57:36.453Z,1.81
2023-04-26T00:58:36.488Z,1.60
2023-04-26T00:59:36.519Z,1.79
2023-04-26T01:00:36.547Z,1.50
2023-04-26T01:01:36.727Z,1.76
2023-04-26T01:02:36.714Z,1.65
2023-04-26T01:03:36.793Z,1.62
2023-04-26T01:04:36.759Z,1.54
2023-04-26T01:05:36.727Z,1.69
2023-04-26T01:06:36.724Z,1.63
2023-04-26T01:07:36.775Z,1.75
2023-04-26T01:08:36.771Z,1.22
2023-04-26T01:09:36.856Z,1.25
2023-04-26T01:10:36.891Z,1.06
2023-04-26T01:11:36.948Z,1.11
2023-04-26T01:12:36.976Z,1.01
2023-04-26T01:13:36.952Z,0.94
2023-04-26T01:14:36.982Z,0.95
2023-04-26T01:15:37.036Z,1.19
2023-04-26T01:16:37.024Z,0.67
2023-04-26T01:17:37.112Z,0.99
2023-04-26T01:18:37.135Z,0.98
2023-04-26T01:19:37.147Z,0.85
2023-04-26T01:20:37.190Z,1.10
2023-04-26T01:21:37.279Z,1.04
2023-04-26T01:22:37.328Z,0.82
2023-04-26T01:23:37.464Z,0.83
2023-04-26T01:24:37.384Z,0.88
2023-04-26T01:25:37.807Z,0.99
2023-04-26T01:26:37.390Z,0.92
2023-04-26T01:27:37.396Z,1.08
2023-04-26T01:28:37.447Z,0.89
2023-04-26T01:29:37.476Z,1.20
2023-04-26T01:30:37.483Z,1.18
2023-04-26T01:31:37.645Z,1.57
2023-04-26T01:32:37.596Z,1.50
2023-04-26T01:33:37.695Z,1.04
2023-04-26T01:34:37.671Z,1.41
2023-04-26T01:35:37.693Z,1.12
2023-04-26T01:36:37.720Z,1.30
2023-04-26T01:37:37.766Z,1.34
2023-04-26T01:38:37.769Z,1.52
2023-04-26T01:39:37.748Z,1.31
2023-04-26T01:40:37.751Z,1.21
2023-04-26T01:41:37.807Z,1.37
2023-04-26T01:42:37.836Z,1.09
2023-04-26T01:43:37.812Z,1.38
2023-04-26T01:44:37.974Z,1.17
2023-04-26T01:45:37.924Z,1.08
2023-04-26T01:46:38.004Z,1.43
2023-04-26T01:47:38.054Z,1.25
2023-04-26T01:48:37.960Z,1.42
2023-04-26T01:49:38.043Z,1.36
2023-04-26T01:50:38.042Z,1.38
2023-04-26T01:51:38.042Z,1.27
2023-04-26T01:52:38.098Z,1.50
2023-04-26T01:53:38.039Z,1.31
2023-04-26T01:54:38.416Z,1.44
2023-04-26T01:55:38.170Z,1.31
2023-04-26T01:56:38.213Z,1.41
2023-04-26T01:57:38.172Z,0.99
2023-04-26T01:58:38.762Z,1.20
2023-04-26T01:59:38.228Z,1.06
2023-04-26T02:00:38.241Z,1.06
2023-04-26T02:01:38.303Z,1.19
2023-04-26T02:02:38.414Z,1.14
2023-04-26T02:03:38.490Z,1.14
2023-04-26T02:04:38.846Z,0.96
2023-04-26T02:05:38.452Z,0.93
2023-04-26T02:06:38.383Z,1.10
2023-04-26T02:07:38.430Z,0.99
2023-04-26T02:08:38.492Z,1.36
2023-04-26T02:09:38.519Z,1.18
2023-04-26T02:10:38.613Z,1.06
2023-04-26T02:11:39.263Z,1.04
2023-04-26T02:12:38.576Z,1.33
2023-04-26T02:13:38.629Z,1.02
2023-04-26T02:14:38.647Z,1.34
2023-04-26T02:15:38.695Z,1.11
2023-04-26T02:16:38.953Z,1.32
2023-04-26T02:17:39.697Z,1.22
2023-04-26T02:18:39.135Z,1.42
2023-04-26T02:19:38.794Z,1.31
2023-04-26T02:20:38.852Z,1.15
2023-04-26T02:21:38.994Z,1.20
2023-04-26T02:22:38.970Z,1.15
2023-04-26T02:23:39.007Z,1.22
2023-04-26T02:24:38.996Z,1.27
2023-04-26T02:25:38.976Z,1.52
2023-04-26T02:26:39.019Z,1.09
2023-04-26T02:27:38.951Z,0.96
2023-04-26T02:28:39.050Z,1.25
2023-04-26T02:29:44.285Z,1.19
2023-04-26T02:30:40.057Z,1.35
2023-04-26T02:31:39.116Z,1.36
2023-04-26T02:32:39.116Z,1.53
2023-04-26T02:33:39.045Z,2.52
2023-04-26T02:34:39.030Z,1.45
2023-04-26T02:35:39.005Z,1.69
2023-04-26T02:36:39.004Z,1.70
2023-04-26T02:37:39.008Z,1.54
2023-04-26T02:38:39.096Z,1.69
2023-04-26T02:39:39.222Z,1.42
2023-04-26T02:40:39.185Z,1.30
2023-04-26T02:41:39.252Z,1.55
2023-04-26T02:42:39.249Z,1.40
2023-04-26T02:43:39.321Z,1.67
2023-04-26T02:44:39.362Z,1.72
2023-04-26T02:45:39.440Z,1.71
2023-04-26T02:46:39.542Z,1.49
2023-04-26T02:47:39.518Z,1.61
2023-04-26T02:48:39.591Z,1.63
2023-04-26T02:49:39.513Z,1.61
2023-04-26T02:50:39.513Z,1.53
2023-04-26T02:51:39.622Z,1.72
2023-04-26T02:52:39.633Z,1.82
2023-04-26T02:53:39.648Z,1.99
2023-04-26T02:54:39.668Z,1.89
2023-04-26T02:55:39.656Z,2.11
2023-04-26T02:56:39.711Z,1.88
2023-04-26T02:57:39.682Z,1.53
2023-04-26T02:58:39.768Z,1.86
2023-04-26T02:59:39.781Z,1.98
2023-04-26T03:00:39.888Z,2.40
2023-04-26T03:01:39.964Z,1.66
2023-04-26T03:02:40.027Z,1.83
2023-04-26T03:03:39.986Z,1.87
2023-04-26T03:04:39.949Z,1.71
2023-04-26T03:05:39.978Z,1.72
2023-04-26T03:06:39.884Z,1.72
2023-04-26T03:07:39.921Z,1.62
2023-04-26T03:08:39.974Z,1.83
2023-04-26T03:09:40.021Z,2.06
2023-04-26T03:10:40.109Z,1.77
2023-04-26T03:11:40.194Z,1.76
2023-04-26T03:12:40.175Z,1.60
2023-04-26T03:13:40.296Z,1.68
2023-04-26T03:14:40.245Z,1.73
2023-04-26T03:15:40.299Z,2.14
2023-04-26T03:16:40.420Z,1.51
2023-04-26T03:17:40.410Z,1.83
2023-04-26T03:18:40.881Z,1.94
2023-04-26T03:19:40.882Z,2.20
2023-04-26T03:20:40.863Z,1.90
2023-04-26T03:21:40.712Z,2.14
2023-04-26T03:22:40.566Z,1.94
2023-04-26T03:23:40.772Z,1.75
2023-04-26T03:24:40.659Z,1.80
2023-04-26T03:25:40.770Z,1.94
2023-04-26T03:26:40.794Z,2.07
2023-04-26T03:27:41.161Z,1.89
2023-04-26T03:28:40.908Z,1.73
2023-04-26T03:29:43.475Z,1.44
2023-04-26T03:30:41.009Z,1.72
2023-04-26T03:31:41.392Z,2.06
2023-04-26T03:32:41.025Z,2.22
2023-04-26T03:33:40.942Z,2.40
2023-04-26T03:34:40.948Z,2.14
2023-04-26T03:35:41.062Z,2.28
2023-04-26T03:36:40.999Z,2.12
2023-04-26T03:37:40.986Z,2.24
2023-04-26T03:38:40.926Z,2.01
2023-04-26T03:39:40.891Z,1.85
2023-04-26T03:40:40.890Z,1.91
2023-04-26T03:41:40.951Z,2.49
2023-04-26T03:42:40.873Z,2.09
2023-04-26T03:43:40.912Z,1.51
2023-04-26T03:44:40.881Z,1.80
2023-04-26T03:45:40.872Z,1.90
2023-04-26T03:46:40.879Z,1.56
2023-04-26T03:47:40.908Z,1.81
2023-04-26T03:48:40.997Z,1.94
2023-04-26T03:49:40.862Z,1.64
2023-04-26T03:50:40.809Z,1.86
2023-04-26T03:51:40.840Z,1.58
2023-04-26T03:52:40.920Z,1.56
2023-04-26T03:53:40.831Z,1.95
2023-04-26T03:54:40.831Z,2.20
2023-04-26T03:55:40.837Z,1.88
2023-04-26T03:56:40.857Z,1.73
2023-04-26T03:57:41.149Z,1.60
2023-04-26T03:58:40.857Z,1.38
2023-04-26T03:59:41.804Z,1.81
2023-04-26T04:00:40.750Z,2.26
2023-04-26T04:01:41.787Z,2.23
2023-04-26T04:02:40.869Z,1.86
2023-04-26T04:03:41.482Z,2.28
2023-04-26T04:04:40.945Z,2.05
2023-04-26T04:05:40.857Z,1.97
2023-04-26T04:06:40.758Z,2.21
2023-04-26T04:07:40.748Z,2.24
2023-04-26T04:08:40.698Z,2.06
2023-04-26T04:09:40.720Z,2.25
2023-04-26T04:10:40.754Z,1.80
2023-04-26T04:11:40.879Z,1.82
2023-04-26T04:12:40.876Z,2.51
2023-04-26T04:13:40.896Z,1.99
2023-04-26T04:14:40.955Z,2.14
2023-04-26T04:15:41.035Z,1.95
2023-04-26T04:16:41.068Z,1.92
2023-04-26T04:17:41.116Z,2.11
2023-04-26T04:18:41.203Z,2.07
2023-04-26T04:19:41.188Z,2.31
2023-04-26T04:20:41.263Z,2.09
2023-04-26T04:21:41.335Z,2.34
2023-04-26T04:22:41.509Z,2.05
2023-04-26T04:23:41.380Z,2.72
2023-04-26T04:24:41.482Z,2.60
2023-04-26T04:25:41.485Z,2.41
2023-04-26T04:26:41.538Z,2.84
2023-04-26T04:27:41.635Z,2.61
2023-04-26T04:28:41.712Z,2.32
2023-04-26T04:29:41.633Z,2.32
2023-04-26T04:30:41.612Z,2.05
2023-04-26T04:31:42.233Z,1.92
2023-04-26T04:32:41.752Z,2.11
2023-04-26T04:33:41.799Z,1.89
2023-04-26T04:34:41.689Z,2.10
2023-04-26T04:35:41.703Z,2.44
2023-04-26T04:36:41.761Z,2.22
2023-04-26T04:37:41.751Z,2.35
2023-04-26T04:38:41.829Z,2.49
2023-04-26T04:39:41.833Z,2.27
2023-04-26T04:40:41.858Z,2.40
2023-04-26T04:41:42.210Z,2.45
2023-04-26T04:42:41.855Z,2.71
2023-04-26T04:43:41.860Z,2.89
2023-04-26T04:44:41.874Z,2.96
2023-04-26T04:45:41.909Z,2.68
2023-04-26T04:46:41.990Z,2.38
2023-04-26T04:47:42.131Z,3.19
2023-04-26T04:48:41.922Z,3.09
2023-04-26T04:49:41.914Z,3.42
2023-04-26T04:50:41.888Z,2.83
2023-04-26T04:51:41.946Z,2.82
2023-04-26T04:52:41.956Z,3.30
2023-04-26T04:53:42.025Z,3.07
2023-04-26T04:54:42.004Z,3.12
2023-04-26T04:55:42.103Z,3.07
2023-04-26T04:56:42.064Z,3.89
2023-04-26T04:57:43.142Z,3.62
2023-04-26T04:58:42.130Z,2.88
2023-04-26T04:59:42.285Z,3.66
2023-04-26T05:00:42.269Z,3.22
2023-04-26T05:01:42.396Z,3.28
2023-04-26T05:02:42.589Z,3.40
2023-04-26T05:03:42.487Z,3.32
2023-04-26T05:04:42.544Z,2.90
2023-04-26T05:05:42.409Z,3.12
2023-04-26T05:06:42.428Z,2.73
2023-04-26T05:07:42.433Z,3.22
2023-04-26T05:08:44.330Z,3.69
2023-04-26T05:09:42.489Z,3.70
2023-04-26T05:10:42.595Z,3.41
2023-04-26T05:11:42.983Z,2.91
2023-04-26T05:12:43.073Z,2.77
2023-04-26T05:13:42.617Z,2.91
2023-04-26T05:14:42.622Z,2.88
2023-04-26T05:15:43.055Z,3.47
2023-04-26T05:16:42.833Z,3.87
2023-04-26T05:17:42.774Z,3.78
2023-04-26T05:18:42.779Z,3.94
2023-04-26T05:19:42.769Z,4.24
2023-04-26T05:20:42.833Z,4.14
2023-04-26T05:21:43.421Z,4.26
2023-04-26T05:22:42.835Z,3.08
2023-04-26T05:23:42.923Z,2.93
2023-04-26T05:24:42.972Z,2.92
2023-04-26T05:25:43.324Z,2.61
2023-04-26T05:26:43.140Z,2.30
2023-04-26T05:27:43.143Z,3.27
2023-04-26T05:28:43.146Z,2.26
2023-04-26T05:29:43.143Z,2.60
2023-04-26T05:30:43.335Z,2.40
2023-04-26T05:31:44.637Z,2.98
2023-04-26T05:32:43.448Z,2.33
2023-04-26T05:33:43.224Z,2.35
2023-04-26T05:34:43.808Z,2.23
2023-04-26T05:35:43.280Z,2.25
2023-04-26T05:36:43.504Z,2.58
2023-04-26T05:37:43.294Z,2.85
2023-04-26T05:38:43.293Z,3.11
2023-04-26T05:39:43.303Z,2.85
2023-04-26T05:40:43.322Z,3.38
2023-04-26T05:41:43.338Z,3.10
2023-04-26T05:42:43.445Z,2.99
2023-04-26T05:43:43.471Z,3.20
2023-04-26T05:44:43.468Z,3.80
2023-04-26T05:47:11.232Z,2.07
2023-04-26T05:48:03.393Z,2.22
2023-04-26T05:49:03.356Z,2.25
2023-04-26T05:50:03.328Z,2.26
2023-04-26T05:51:03.437Z,2.24
2023-04-26T05:52:03.778Z,1.94
2023-04-26T05:53:03.247Z,2.92
2023-04-26T05:54:04.322Z,3.46
2023-04-26T05:55:03.415Z,2.64
2023-04-26T05:56:03.279Z,3.36
2023-04-26T05:57:03.440Z,3.19
2023-04-26T05:58:03.176Z,3.48
2023-04-26T05:59:03.285Z,4.58
2023-04-26T06:00:03.299Z,4.41
2023-04-26T06:01:03.171Z,5.20
2023-04-26T06:02:03.312Z,4.80
2023-04-26T06:03:03.510Z,4.88
2023-04-26T06:04:03.470Z,4.21
2023-04-26T06:05:03.442Z,5.21
2023-04-26T06:06:03.244Z,4.86
2023-04-26T06:07:03.304Z,4.80
2023-04-26T06:08:03.139Z,4.42
2023-04-26T06:09:03.252Z,4.88
2023-04-26T06:10:03.174Z,4.47
2023-04-26T06:11:03.204Z,5.46
2023-04-26T06:12:03.230Z,4.90
2023-04-26T06:13:03.287Z,5.64
2023-04-26T06:14:03.236Z,4.71
2023-04-26T06:15:03.276Z,4.63
2023-04-26T06:16:03.250Z,5.09
2023-04-26T06:17:03.367Z,5.32
2023-04-26T06:18:03.195Z,6.60
2023-04-26T06:19:04.076Z,5.65
2023-04-26T06:20:03.277Z,5.11
2023-04-26T06:21:03.187Z,5.53
2023-04-26T06:22:03.128Z,4.82
2023-04-26T06:23:03.141Z,4.78
2023-04-26T06:24:03.182Z,5.22
2023-04-26T06:25:03.303Z,5.02
2023-04-26T06:26:03.258Z,5.21
2023-04-26T06:27:03.247Z,6.01
2023-04-26T06:28:03.696Z,5.28
2023-04-26T06:29:03.066Z,5.94
2023-04-26T06:30:03.098Z,5.23
2023-04-26T06:31:03.206Z,5.88
2023-04-26T06:32:03.145Z,5.87
2023-04-26T06:33:03.163Z,5.99
2023-04-26T06:34:03.116Z,6.77
2023-04-26T06:35:03.096Z,7.05
2023-04-26T06:36:03.147Z,8.08
2023-04-26T06:37:03.374Z,6.43
2023-04-26T06:38:03.817Z,7.06
2023-04-26T06:39:03.075Z,8.57
2023-04-26T06:40:03.293Z,10.34
2023-04-26T06:41:03.157Z,7.12
2023-04-26T06:42:03.268Z,7.16
2023-04-26T06:43:03.068Z,6.62
2023-04-26T06:44:03.011Z,7.16
2023-04-26T06:45:03.109Z,7.03
2023-04-26T06:46:03.734Z,7.89
2023-04-26T06:47:03.111Z,7.61
2023-04-26T06:48:03.148Z,9.15
2023-04-26T06:49:03.214Z,7.93
2023-04-26T06:50:03.162Z,7.30
2023-04-26T06:51:03.143Z,6.38
2023-04-26T06:52:03.241Z,6.00
2023-04-26T06:53:03.236Z,6.24
2023-04-26T06:54:03.323Z,6.50
2023-04-26T06:55:03.186Z,7.19
2023-04-26T06:56:03.147Z,6.98
2023-04-26T06:57:04.063Z,6.88
2023-04-26T06:58:03.165Z,6.22
2023-04-26T06:59:03.780Z,5.81
2023-04-26T07:00:03.331Z,5.76
2023-04-26T07:01:03.372Z,5.59
2023-04-26T07:02:03.393Z,5.52
2023-04-26T07:03:03.940Z,5.97
2023-04-26T07:04:03.706Z,5.49
2023-04-26T07:05:03.705Z,5.72
2023-04-26T07:06:05.925Z,5.72
2023-04-26T07:07:03.644Z,5.34
2023-04-26T07:08:03.819Z,5.39
2023-04-26T07:09:03.954Z,4.76
2023-04-26T07:10:03.690Z,4.81
2023-04-26T07:11:05.023Z,5.10
2023-04-26T07:12:04.056Z,4.77
2023-04-26T07:13:04.607Z,5.03
2023-04-26T07:14:04.183Z,5.09
2023-04-26T07:15:03.807Z,4.53
2023-04-26T07:16:03.924Z,4.39
2023-04-26T07:17:03.949Z,4.40
2023-04-26T07:18:03.999Z,4.44
2023-04-26T07:19:03.957Z,5.35
2023-04-26T07:20:03.969Z,4.66
2023-04-26T07:21:03.949Z,4.09
2023-04-26T07:22:04.012Z,4.97
2023-04-26T07:23:04.296Z,4.49
2023-04-26T07:24:04.087Z,4.40
2023-04-26T07:25:04.138Z,4.60
2023-04-26T07:26:04.134Z,4.55
2023-04-26T07:27:04.375Z,4.54
2023-04-26T07:28:04.719Z,4.29
2023-04-26T07:29:04.215Z,4.51
2023-04-26T07:30:04.358Z,4.07
2023-04-26T07:31:05.183Z,4.13
2023-04-26T07:32:04.403Z,3.95
2023-04-26T07:33:04.896Z,3.79
2023-04-26T07:34:04.440Z,3.41
2023-04-26T07:35:04.446Z,4.26
2023-04-26T07:36:04.469Z,4.72
2023-04-26T07:37:04.797Z,3.62
2023-04-26T07:38:05.560Z,3.56
2023-04-26T07:39:04.779Z,3.84
2023-04-26T07:40:04.653Z,3.63
2023-04-26T07:41:04.648Z,4.27
2023-04-26T07:42:04.690Z,4.02
2023-04-26T07:43:04.724Z,3.77
2023-04-26T07:44:04.730Z,4.31
2023-04-26T07:45:04.714Z,3.41
2023-04-26T07:46:04.760Z,4.12
2023-04-26T07:47:04.880Z,3.53
2023-04-26T07:48:04.985Z,7.34
2023-04-26T07:49:05.012Z,4.40
2023-04-26T07:50:04.955Z,4.08
2023-04-26T07:51:05.065Z,6.95
2023-04-26T07:52:05.088Z,5.71
2023-04-26T07:53:05.024Z,4.26
2023-04-26T07:54:05.065Z,3.73
2023-04-26T07:55:05.125Z,4.10
2023-04-26T07:56:05.156Z,3.46
2023-04-26T07:57:05.115Z,3.85
2023-04-26T07:58:05.222Z,4.31
2023-04-26T07:59:05.195Z,3.11
2023-04-26T08:00:05.195Z,3.92
2023-04-26T08:01:05.199Z,3.68
2023-04-26T08:02:05.337Z,3.36
2023-04-26T08:03:05.890Z,4.05
2023-04-26T08:04:05.378Z,3.96
2023-04-26T08:05:05.496Z,4.10
2023-04-26T08:06:05.726Z,4.21
2023-04-26T08:07:05.247Z,4.33
2023-04-26T08:08:05.788Z,3.88
2023-04-26T08:09:05.275Z,3.79
2023-04-26T08:10:05.247Z,4.30
2023-04-26T08:11:05.334Z,4.51
2023-04-26T08:12:05.276Z,4.52
2023-04-26T08:13:05.732Z,3.83
2023-04-26T08:14:05.271Z,4.00
2023-04-26T08:15:05.259Z,4.27
2023-04-26T08:16:05.185Z,4.42
2023-04-26T08:17:05.484Z,4.51
2023-04-26T08:18:05.282Z,4.54
2023-04-26T08:19:05.213Z,3.91
2023-04-26T08:20:05.212Z,3.77
2023-04-26T08:21:05.285Z,3.62
2023-04-26T08:22:06.166Z,3.99
2023-04-26T08:23:05.412Z,3.51
2023-04-26T08:24:05.307Z,3.89
2023-04-26T08:25:05.316Z,4.08
2023-04-26T08:26:05.328Z,3.63
2023-04-26T08:27:05.525Z,3.83
2023-04-26T08:28:05.773Z,3.91
2023-04-26T08:29:05.433Z,3.53
2023-04-26T08:30:05.563Z,3.88
2023-04-26T08:31:05.637Z,3.74
2023-04-26T08:32:05.608Z,3.15
2023-04-26T08:33:05.763Z,3.86
2023-04-26T08:34:05.704Z,3.38
2023-04-26T08:35:05.678Z,3.03
2023-04-26T08:36:05.820Z,3.70
2023-04-26T08:37:05.721Z,3.36
2023-04-26T08:38:06.259Z,3.36
2023-04-26T08:39:05.721Z,3.77
2023-04-26T08:40:05.755Z,3.37
2023-04-26T08:41:05.765Z,3.51
2023-04-26T08:42:05.882Z,3.50
2023-04-26T08:43:06.305Z,3.29
2023-04-26T08:44:05.893Z,4.09
2023-04-26T08:45:06.005Z,3.40
2023-04-26T08:46:06.032Z,3.44
2023-04-26T08:47:06.012Z,3.02
2023-04-26T08:48:06.353Z,3.11
2023-04-26T08:49:06.121Z,2.99
2023-04-26T08:50:06.082Z,2.74
2023-04-26T08:51:06.167Z,3.07
2023-04-26T08:52:06.278Z,3.11
2023-04-26T08:53:06.277Z,3.15
2023-04-26T08:54:06.168Z,2.96
2023-04-26T08:55:06.223Z,2.99
2023-04-26T08:56:06.289Z,3.28
2023-04-26T08:57:06.502Z,3.06
2023-04-26T08:58:06.758Z,3.15
2023-04-26T08:59:06.331Z,2.70
2023-04-26T09:00:06.534Z,3.23
2023-04-26T09:01:06.567Z,2.93
2023-04-26T09:02:06.534Z,3.46
2023-04-26T09:03:06.904Z,3.11
2023-04-26T09:04:06.700Z,2.87
2023-04-26T09:05:06.736Z,2.79
2023-04-26T09:06:06.657Z,2.75
2023-04-26T09:07:06.660Z,3.05
2023-04-26T09:08:06.672Z,3.14
2023-04-26T09:09:06.801Z,2.96
2023-04-26T09:10:06.689Z,3.77
2023-04-26T09:11:06.789Z,3.36
2023-04-26T09:12:06.783Z,3.44
2023-04-26T09:13:06.781Z,3.39
2023-04-26T09:14:07.219Z,3.46
2023-04-26T09:15:06.941Z,3.92
2023-04-26T09:16:06.937Z,3.24
2023-04-26T09:17:06.926Z,8.79
2023-04-26T09:18:08.195Z,3.91
2023-04-26T09:19:06.955Z,3.58
2023-04-26T09:20:07.989Z,3.12
2023-04-26T09:21:06.995Z,3.21
2023-04-26T09:22:07.043Z,2.56
2023-04-26T09:23:07.013Z,2.49
2023-04-26T09:24:07.257Z,2.77
2023-04-26T09:25:07.061Z,2.55
2023-04-26T09:26:07.092Z,3.04
2023-04-26T09:27:07.105Z,2.84
2023-04-26T09:28:07.212Z,2.64
2023-04-26T09:29:07.245Z,2.66
2023-04-26T09:30:07.241Z,2.76
2023-04-26T09:31:07.356Z,2.85
2023-04-26T09:32:07.494Z,3.00
2023-04-26T09:33:07.467Z,2.35
2023-04-26T09:34:08.375Z,2.45
2023-04-26T09:35:07.435Z,2.91
2023-04-26T09:36:07.453Z,3.31
2023-04-26T09:37:07.492Z,3.21
2023-04-26T09:38:10.925Z,2.55
2023-04-26T09:39:08.815Z,3.26
2023-04-26T09:40:07.620Z,2.57
2023-04-26T09:41:07.811Z,2.76
2023-04-26T09:42:07.515Z,2.67
2023-04-26T09:43:07.444Z,2.51
2023-04-26T09:44:07.745Z,2.69
2023-04-26T09:45:07.499Z,2.74
2023-04-26T09:46:07.548Z,2.69
2023-04-26T09:47:07.595Z,2.66
2023-04-26T09:48:07.482Z,2.64
2023-04-26T09:49:07.770Z,2.15
2023-04-26T09:50:07.372Z,2.58
2023-04-26T09:51:07.383Z,2.55
2023-04-26T09:52:07.396Z,2.76
2023-04-26T09:53:07.412Z,2.66
2023-04-26T09:54:07.528Z,2.74
2023-04-26T09:55:07.519Z,2.41
2023-04-26T09:56:07.659Z,3.13
2023-04-26T09:57:07.643Z,2.91
2023-04-26T09:58:07.644Z,2.54
2023-04-26T09:59:07.860Z,2.19
2023-04-26T10:00:07.710Z,2.74
2023-04-26T10:01:07.692Z,2.93
2023-04-26T10:02:07.717Z,2.49
2023-04-26T10:03:08.134Z,2.46
2023-04-26T10:04:07.946Z,2.32
2023-04-26T10:05:08.783Z,2.54
2023-04-26T10:06:07.776Z,2.18
2023-04-26T10:07:07.789Z,2.68
2023-04-26T10:08:08.297Z,2.52
2023-04-26T10:09:07.818Z,2.95
2023-04-26T10:10:07.774Z,2.83
2023-04-26T10:11:07.785Z,2.63
2023-04-26T10:12:07.725Z,2.78
2023-04-26T10:13:07.744Z,2.88
2023-04-26T10:14:08.347Z,2.56
2023-04-26T10:15:07.837Z,2.27
2023-04-26T10:16:07.928Z,2.57
2023-04-26T10:17:07.761Z,3.67
2023-04-26T10:18:07.912Z,2.56
2023-04-26T10:19:08.390Z,2.44
2023-04-26T10:20:07.967Z,2.58
2023-04-26T10:21:07.981Z,2.19
2023-04-26T10:22:07.952Z,2.21
2023-04-26T10:23:07.976Z,2.49
2023-04-26T10:24:08.766Z,2.66
2023-04-26T10:25:08.029Z,2.42
2023-04-26T10:26:08.130Z,2.60
2023-04-26T10:27:08.121Z,2.04
2023-04-26T10:28:08.147Z,2.73
2023-04-26T10:29:08.431Z,2.85
2023-04-26T10:30:08.262Z,2.39
2023-04-26T10:31:08.288Z,2.38
2023-04-26T10:32:08.419Z,2.88
2023-04-26T10:33:08.343Z,2.23
2023-04-26T10:34:10.271Z,2.14
2023-04-26T10:35:08.314Z,2.59
2023-04-26T10:36:08.322Z,2.35
2023-04-26T10:37:08.842Z,2.29
2023-04-26T10:38:08.808Z,2.18
2023-04-26T10:39:08.842Z,2.18
2023-04-26T10:40:08.594Z,2.34
2023-04-26T10:41:10.065Z,2.24
2023-04-26T10:42:08.760Z,1.92
2023-04-26T10:43:08.240Z,1.91
2023-04-26T10:44:08.314Z,2.15
2023-04-26T10:45:08.287Z,2.90
2023-04-26T10:46:08.431Z,2.89
2023-04-26T10:47:08.369Z,3.16
2023-04-26T10:48:08.441Z,2.48
2023-04-26T10:49:08.440Z,2.46
2023-04-26T10:50:08.407Z,2.13
2023-04-26T10:51:08.550Z,2.65
2023-04-26T10:52:08.541Z,2.19
2023-04-26T10:53:08.717Z,1.84
2023-04-26T10:54:08.824Z,1.97
2023-04-26T10:55:08.566Z,2.08
2023-04-26T10:56:08.548Z,2.40
2023-04-26T10:57:08.644Z,2.18
2023-04-26T10:58:08.638Z,2.51
2023-04-26T10:59:28.501Z,2.31
2023-04-26T11:00:09.700Z,2.26
2023-04-26T11:01:08.766Z,2.04
2023-04-26T11:02:08.676Z,1.67
2023-04-26T11:03:08.963Z,2.07
2023-04-26T11:04:08.832Z,2.12
2023-04-26T11:05:09.348Z,2.00
2023-04-26T11:06:08.613Z,2.44
2023-04-26T11:07:08.693Z,2.02
2023-04-26T11:08:08.618Z,2.22
2023-04-26T11:09:08.739Z,2.34
2023-04-26T11:10:08.639Z,2.07
2023-04-26T11:11:08.641Z,2.21
2023-04-26T11:12:08.679Z,2.44
2023-04-26T11:13:08.685Z,2.13
2023-04-26T11:14:08.855Z,1.85
2023-04-26T11:15:08.791Z,1.99
2023-04-26T11:16:08.983Z,1.90
2023-04-26T11:17:08.872Z,2.14
2023-04-26T11:18:08.915Z,2.02
2023-04-26T11:19:09.397Z,1.73
2023-04-26T11:20:08.931Z,1.89
2023-04-26T11:21:08.934Z,2.11
2023-04-26T11:22:09.014Z,1.80
2023-04-26T11:23:09.033Z,2.37
2023-04-26T11:24:09.050Z,2.21
2023-04-26T11:25:09.772Z,1.89
2023-04-26T11:26:09.058Z,2.23
2023-04-26T11:27:09.175Z,2.43
2023-04-26T11:28:09.952Z,3.36
2023-04-26T11:29:09.317Z,2.91
2023-04-26T11:30:11.456Z,2.17
2023-04-26T11:31:09.769Z,2.88
2023-04-26T11:32:09.713Z,2.29
2023-04-26T11:33:10.393Z,2.39
2023-04-26T11:34:09.519Z,2.45
2023-04-26T11:35:09.842Z,2.06
2023-04-26T11:36:09.464Z,2.46
2023-04-26T11:37:09.435Z,2.39
2023-04-26T11:38:09.588Z,2.20
2023-04-26T11:39:09.612Z,2.70
2023-04-26T11:40:09.613Z,2.33
2023-04-26T11:41:09.679Z,2.41
2023-04-26T11:42:09.659Z,2.60
2023-04-26T11:43:10.318Z,2.44
2023-04-26T11:44:09.944Z,2.08
2023-04-26T11:45:09.813Z,2.16
2023-04-26T11:46:10.093Z,1.86
2023-04-26T11:47:10.202Z,1.88
2023-04-26T11:48:09.983Z,1.59
2023-04-26T11:49:10.010Z,2.40
2023-04-26T11:50:10.106Z,1.70
2023-04-26T11:51:10.057Z,1.75
2023-04-26T11:52:10.097Z,7.73
2023-04-26T11:53:10.158Z,2.01
2023-04-26T11:54:10.169Z,3.87
2023-04-26T11:55:10.178Z,2.17
2023-04-26T11:56:10.215Z,2.06
2023-04-26T11:57:10.273Z,2.11
2023-04-26T11:58:10.257Z,2.14
2023-04-26T11:59:10.313Z,1.91
2023-04-26T12:00:10.326Z,2.08
2023-04-26T12:01:10.323Z,2.13
2023-04-26T12:02:10.385Z,2.00
2023-04-26T12:03:10.618Z,1.89
2023-04-26T12:04:10.667Z,1.64
2023-04-26T12:05:10.649Z,2.29
2023-04-26T12:06:10.499Z,2.04
2023-04-26T12:07:10.457Z,1.55
2023-04-26T12:08:10.519Z,1.85
2023-04-26T12:09:10.573Z,1.85
2023-04-26T12:10:10.629Z,1.79
2023-04-26T12:11:10.692Z,1.94
2023-04-26T12:12:10.634Z,1.65
2023-04-26T12:13:10.649Z,2.58
2023-04-26T12:14:10.721Z,1.72
2023-04-26T12:15:11.485Z,2.18
2023-04-26T12:16:22.467Z,2.01
2023-04-26T12:17:11.805Z,1.90
2023-04-26T12:18:11.360Z,1.74
2023-04-26T12:19:10.752Z,1.82
2023-04-26T12:20:10.860Z,2.01
2023-04-26T12:21:10.764Z,1.70
2023-04-26T12:22:10.791Z,1.95
2023-04-26T12:23:10.801Z,1.91
2023-04-26T12:24:10.721Z,2.16
2023-04-26T12:25:10.761Z,1.80
2023-04-26T12:26:10.760Z,2.07
2023-04-26T12:27:10.726Z,2.08
2023-04-26T12:28:10.891Z,2.24
2023-04-26T12:29:10.759Z,2.16
2023-04-26T12:30:10.821Z,1.76
2023-04-26T12:31:10.888Z,2.03
2023-04-26T12:32:10.848Z,1.84
2023-04-26T12:33:16.932Z,1.62
2023-04-26T12:34:11.967Z,1.96
2023-04-26T12:35:10.960Z,1.98
2023-04-26T12:36:10.915Z,1.72
2023-04-26T12:37:10.922Z,1.79
2023-04-26T12:38:11.105Z,1.67
2023-04-26T12:39:11.919Z,1.67
2023-04-26T12:40:10.889Z,2.20
2023-04-26T12:41:10.863Z,1.89
2023-04-26T12:42:10.835Z,2.11
2023-04-26T12:43:10.806Z,2.02
2023-04-26T12:44:10.823Z,2.16
2023-04-26T12:45:11.348Z,2.28
2023-04-26T12:46:10.871Z,2.05
2023-04-26T12:47:10.855Z,2.19
2023-04-26T12:48:10.984Z,1.76
2023-04-26T12:49:10.936Z,2.02
2023-04-26T12:50:11.066Z,1.74
2023-04-26T12:51:11.023Z,2.03
2023-04-26T12:52:11.052Z,1.49
2023-04-26T12:53:11.105Z,1.96
2023-04-26T12:54:11.115Z,1.70
2023-04-26T12:55:11.216Z,1.79
2023-04-26T12:56:11.203Z,2.05
2023-04-26T12:57:11.217Z,1.96
2023-04-26T12:58:11.455Z,1.83
2023-04-26T12:59:11.291Z,1.85
2023-04-26T13:00:11.342Z,1.93
2023-04-26T13:01:11.343Z,2.00
2023-04-26T13:02:11.391Z,2.29
2023-04-26T13:03:11.529Z,1.63
2023-04-26T13:04:11.600Z,1.88
2023-04-26T13:05:11.430Z,1.49
2023-04-26T13:06:11.427Z,2.12
2023-04-26T13:07:11.536Z,1.61
2023-04-26T13:08:11.743Z,1.75
2023-04-26T13:09:11.453Z,1.71
2023-04-26T13:10:12.870Z,1.79
2023-04-26T13:11:11.518Z,1.97
2023-04-26T13:12:11.522Z,1.77
2023-04-26T13:13:11.504Z,2.11
2023-04-26T13:14:11.577Z,1.88
2023-04-26T13:15:11.602Z,2.24
2023-04-26T13:16:11.779Z,2.11
2023-04-26T13:17:12.177Z,2.17
2023-04-26T13:18:12.028Z,1.87
2023-04-26T13:19:11.721Z,1.94
2023-04-26T13:20:11.733Z,1.98